sensor_id;sensor_type;location;lat;lon;timestamp;pressure;altitude;pressure_sealevel;temperature;humidity
9009;BME280;62813;51.424;6.762;2023-02-23T00:01:27;101000.16;;;9.92;92.07
9009;BME280;62813;51.424;6.762;2023-02-23T00:03:55;101007.94;;;9.92;91.93
9009;BME280;62813;51.424;6.762;2023-02-23T00:06:25;101007.09;;;9.91;92.28
9009;BME280;62813;51.424;6.762;2023-02-23T00:08:52;101001.97;;;9.90;92.14
9009;BME280;62813;51.424;6.762;2023-02-23T00:11:19;101002.72;;;9.93;91.96
9009;BME280;62813;51.424;6.762;2023-02-23T00:13:48;100994.25;;;9.88;91.89
9009;BME280;62813;51.424;6.762;2023-02-23T00:16:20;100998.63;;;9.86;92.20
9009;BME280;62813;51.424;6.762;2023-02-23T00:18:57;100991.91;;;9.81;92.20
9009;BME280;62813;51.424;6.762;2023-02-23T00:21:27;100996.25;;;9.80;92.00
9009;BME280;62813;51.424;6.762;2023-02-23T00:23:58;100995.50;;;9.76;92.43
9009;BME280;62813;51.424;6.762;2023-02-23T00:26:27;100994.69;;;9.74;92.38
9009;BME280;62813;51.424;6.762;2023-02-23T00:28:57;100989.47;;;9.76;92.42
9009;BME280;62813;51.424;6.762;2023-02-23T00:31:25;100993.66;;;9.80;92.67
9009;BME280;62813;51.424;6.762;2023-02-23T00:33:54;100996.25;;;9.80;92.66
9009;BME280;62813;51.424;6.762;2023-02-23T00:36:23;100990.22;;;9.80;92.54
9009;BME280;62813;51.424;6.762;2023-02-23T00:38:55;100989.25;;;9.82;92.38
9009;BME280;62813;51.424;6.762;2023-02-23T00:41:23;100994.44;;;9.82;92.79
9009;BME280;62813;51.424;6.762;2023-02-23T00:43:57;100982.38;;;9.81;92.58
9009;BME280;62813;51.424;6.762;2023-02-23T00:46:27;100985.06;;;9.78;92.20
9009;BME280;62813;51.424;6.762;2023-02-23T00:48:55;100987.66;;;9.78;92.85
9009;BME280;62813;51.424;6.762;2023-02-23T00:51:24;100987.78;;;9.75;92.68
9009;BME280;62813;51.424;6.762;2023-02-23T00:53:58;100986.94;;;9.74;92.63
9009;BME280;62813;51.424;6.762;2023-02-23T00:56:26;100984.34;;;9.74;92.52
9009;BME280;62813;51.424;6.762;2023-02-23T00:58:54;100986.16;;;9.71;92.29
9009;BME280;62813;51.424;6.762;2023-02-23T01:01:21;100980.97;;;9.71;92.06
9009;BME280;62813;51.424;6.762;2023-02-23T01:03:47;100985.38;;;9.69;91.98
9009;BME280;62813;51.424;6.762;2023-02-23T01:06:16;100980.25;;;9.67;91.98
9009;BME280;62813;51.424;6.762;2023-02-23T01:08:45;100981.09;;;9.68;92.20
9009;BME280;62813;51.424;6.762;2023-02-23T01:11:18;100980.25;;;9.67;92.28
9009;BME280;62813;51.424;6.762;2023-02-23T01:13:47;100979.28;;;9.70;92.26
9009;BME280;62813;51.424;6.762;2023-02-23T01:16:16;100976.56;;;9.74;92.42
9009;BME280;62813;51.424;6.762;2023-02-23T01:18:44;100976.56;;;9.74;91.82
9009;BME280;62813;51.424;6.762;2023-02-23T01:21:19;100978.38;;;9.71;91.77
9009;BME280;62813;51.424;6.762;2023-02-23T01:23:46;100975.78;;;9.71;92.24
9009;BME280;62813;51.424;6.762;2023-02-23T01:26:24;100983.53;;;9.72;92.03
9009;BME280;62813;51.424;6.762;2023-02-23T01:28:53;100979.22;;;9.71;92.26
9009;BME280;62813;51.424;6.762;2023-02-23T01:31:21;100984.38;;;9.73;92.16
9009;BME280;62813;51.424;6.762;2023-02-23T01:33:53;100979.22;;;9.73;92.27
9009;BME280;62813;51.424;6.762;2023-02-23T01:36:20;100984.38;;;9.73;92.10
9009;BME280;62813;51.424;6.762;2023-02-23T01:38:46;100982.59;;;9.75;92.57
9009;BME280;62813;51.424;6.762;2023-02-23T01:41:15;100977.41;;;9.75;92.52
9009;BME280;62813;51.424;6.762;2023-02-23T01:46:20;100984.22;;;9.77;92.64
9009;BME280;62813;51.424;6.762;2023-02-23T01:48:47;100980.00;;;9.75;92.34
9009;BME280;62813;51.424;6.762;2023-02-23T01:51:17;100980.00;;;9.75;92.32
9009;BME280;62813;51.424;6.762;2023-02-23T01:53:53;100980.91;;;9.74;92.51
9009;BME280;62813;51.424;6.762;2023-02-23T01:56:25;100974.88;;;9.73;92.35
9009;BME280;62813;51.424;6.762;2023-02-23T01:58:55;100984.34;;;9.74;92.63
9009;BME280;62813;51.424;6.762;2023-02-23T02:01:23;100979.16;;;9.74;92.49
9009;BME280;62813;51.424;6.762;2023-02-23T02:04:02;100976.63;;;9.73;92.81
9009;BME280;62813;51.424;6.762;2023-02-23T02:06:34;100984.38;;;9.73;92.65
9009;BME280;62813;51.424;6.762;2023-02-23T02:09:06;100984.34;;;9.74;92.70
9009;BME280;62813;51.424;6.762;2023-02-23T02:11:34;100976.56;;;9.74;92.70
9009;BME280;62813;51.424;6.762;2023-02-23T02:14:06;100975.72;;;9.74;92.79
9009;BME280;62813;51.424;6.762;2023-02-23T02:20:03;100975.72;;;9.74;92.70
9009;BME280;62813;51.424;6.762;2023-02-23T02:39:44;100975.16;;;9.64;92.59
9009;BME280;62813;51.424;6.762;2023-02-23T02:42:26;100969.03;;;9.67;92.67
9009;BME280;62813;51.424;6.762;2023-02-23T02:45:26;100975.13;;;9.66;92.58
9009;BME280;62813;51.424;6.762;2023-02-23T02:48:03;100976.88;;;9.65;92.91
9009;BME280;62813;51.424;6.762;2023-02-23T02:50:44;100971.78;;;9.62;92.72
9009;BME280;62813;51.424;6.762;2023-02-23T02:53:17;100972.63;;;9.63;92.72
9009;BME280;62813;51.424;6.762;2023-02-23T02:55:47;100968.34;;;9.62;92.89
9009;BME280;62813;51.424;6.762;2023-02-23T02:58:16;100973.47;;;9.63;92.69
9009;BME280;62813;51.424;6.762;2023-02-23T03:00:45;100970.88;;;9.63;92.85
9009;BME280;62813;51.424;6.762;2023-02-23T03:06:26;100973.59;;;9.60;92.63
9009;BME280;62813;51.424;6.762;2023-02-23T03:12:26;100973.59;;;9.60;92.58
9009;BME280;62813;51.424;6.762;2023-02-23T03:16:19;100974.44;;;9.61;92.69
9009;BME280;62813;51.424;6.762;2023-02-23T03:19:03;100972.75;;;9.60;92.78
9009;BME280;62813;51.424;6.762;2023-02-23T03:22:05;100971.03;;;9.59;93.02
9009;BME280;62813;51.424;6.762;2023-02-23T03:25:00;100977.06;;;9.59;92.84
9009;BME280;62813;51.424;6.762;2023-02-23T03:34:29;100983.19;;;9.57;92.98
9009;BME280;62813;51.424;6.762;2023-02-23T03:37:27;100984.88;;;9.58;92.90
9009;BME280;62813;51.424;6.762;2023-02-23T03:40:20;100985.78;;;9.57;92.93
9009;BME280;62813;51.424;6.762;2023-02-23T03:43:12;100985.78;;;9.57;93.23
9009;BME280;62813;51.424;6.762;2023-02-23T03:46:02;100989.38;;;9.53;92.90
9009;BME280;62813;51.424;6.762;2023-02-23T03:48:49;100982.50;;;9.52;93.36
9009;BME280;62813;51.424;6.762;2023-02-23T03:51:38;100986.84;;;9.51;93.21
9009;BME280;62813;51.424;6.762;2023-02-23T03:54:36;100982.50;;;9.52;93.21
9009;BME280;62813;51.424;6.762;2023-02-23T03:57:24;100987.63;;;9.53;93.37
9009;BME280;62813;51.424;6.762;2023-02-23T04:00:17;100980.78;;;9.52;93.24
9009;BME280;62813;51.424;6.762;2023-02-23T04:03:05;100987.84;;;9.47;93.20
9009;BME280;62813;51.424;6.762;2023-02-23T04:05:53;100988.78;;;9.44;93.22
9009;BME280;62813;51.424;6.762;2023-02-23T04:08:40;100990.47;;;9.45;93.09
9009;BME280;62813;51.424;6.762;2023-02-23T04:14:44;100987.06;;;9.43;93.08
9009;BME280;62813;51.424;6.762;2023-02-23T04:17:15;101000.94;;;9.42;93.23
9009;BME280;62813;51.424;6.762;2023-02-23T04:19:53;101001.81;;;9.41;93.07
9009;BME280;62813;51.424;6.762;2023-02-23T04:22:21;101003.56;;;9.41;93.00
9009;BME280;62813;51.424;6.762;2023-02-23T04:24:49;101002.72;;;9.40;93.21
9009;BME280;62813;51.424;6.762;2023-02-23T04:27:16;101003.63;;;9.39;92.94
9009;BME280;62813;51.424;6.762;2023-02-23T04:29:43;101001.03;;;9.39;93.08
9009;BME280;62813;51.424;6.762;2023-02-23T04:32:15;101000.13;;;9.40;93.48
9009;BME280;62813;51.424;6.762;2023-02-23T04:34:43;101009.59;;;9.41;93.59
9009;BME280;62813;51.424;6.762;2023-02-23T04:37:11;101005.25;;;9.42;93.17
9009;BME280;62813;51.424;6.762;2023-02-23T04:39:38;101007.00;;;9.41;93.26
9009;BME280;62813;51.424;6.762;2023-02-23T04:42:05;100997.53;;;9.40;93.37
9009;BME280;62813;51.424;6.762;2023-02-23T04:44:31;101005.38;;;9.39;93.74
9009;BME280;62813;51.424;6.762;2023-02-23T04:46:58;101005.25;;;9.42;93.51
9009;BME280;62813;51.424;6.762;2023-02-23T04:49:24;101006.94;;;9.43;93.91
9009;BME280;62813;51.424;6.762;2023-02-23T04:51:51;101005.19;;;9.45;93.44
9009;BME280;62813;51.424;6.762;2023-02-23T04:54:17;101003.50;;;9.44;93.70
9009;BME280;62813;51.424;6.762;2023-02-23T04:56:44;101008.63;;;9.45;93.78
9009;BME280;62813;51.424;6.762;2023-02-23T04:59:10;101006.94;;;9.44;93.98
9009;BME280;62813;51.424;6.762;2023-02-23T05:01:37;101006.03;;;9.45;93.94
9009;BME280;62813;51.424;6.762;2023-02-23T05:04:04;101000.00;;;9.45;94.00
9009;BME280;62813;51.424;6.762;2023-02-23T05:06:31;101012.06;;;9.46;93.79
9009;BME280;62813;51.424;6.762;2023-02-23T05:08:57;101012.13;;;9.44;93.86
9009;BME280;62813;51.424;6.762;2023-02-23T05:11:24;101003.44;;;9.45;93.91
9009;BME280;62813;51.424;6.762;2023-02-23T05:13:53;101012.91;;;9.46;93.70
9009;BME280;62813;51.424;6.762;2023-02-23T05:16:20;101009.47;;;9.46;93.76
9009;BME280;62813;51.424;6.762;2023-02-23T05:18:46;101009.53;;;9.44;93.56
9009;BME280;62813;51.424;6.762;2023-02-23T05:21:14;101010.38;;;9.45;93.82
9009;BME280;62813;51.424;6.762;2023-02-23T05:23:40;101012.97;;;9.43;93.74
9009;BME280;62813;51.424;6.762;2023-02-23T05:26:11;101016.47;;;9.42;93.75
9009;BME280;62813;51.424;6.762;2023-02-23T05:28:40;101018.16;;;9.43;93.69
9009;BME280;62813;51.424;6.762;2023-02-23T05:31:07;101019.97;;;9.41;93.58
9009;BME280;62813;51.424;6.762;2023-02-23T05:33:35;101019.19;;;9.39;93.60
9009;BME280;62813;51.424;6.762;2023-02-23T05:36:11;101014.84;;;9.40;93.50
9009;BME280;62813;51.424;6.762;2023-02-23T05:38:39;101018.28;;;9.40;93.57
9009;BME280;62813;51.424;6.762;2023-02-23T05:41:12;101014.91;;;9.38;93.78
9009;BME280;62813;51.424;6.762;2023-02-23T05:43:39;101015.78;;;9.37;93.69
9009;BME280;62813;51.424;6.762;2023-02-23T05:46:11;101018.38;;;9.37;93.60
9009;BME280;62813;51.424;6.762;2023-02-23T05:48:40;101019.22;;;9.38;93.71
9009;BME280;62813;51.424;6.762;2023-02-23T05:51:09;101010.75;;;9.33;93.80
9009;BME280;62813;51.424;6.762;2023-02-23T05:53:36;101020.25;;;9.32;93.46
9009;BME280;62813;51.424;6.762;2023-02-23T05:56:04;101018.66;;;9.28;93.22
9009;BME280;62813;51.424;6.762;2023-02-23T05:58:31;101020.34;;;9.29;93.42
9009;BME280;62813;51.424;6.762;2023-02-23T06:00:58;101026.38;;;9.30;93.52
9009;BME280;62813;51.424;6.762;2023-02-23T06:03:25;101027.25;;;9.30;93.24
9009;BME280;62813;51.424;6.762;2023-02-23T06:05:53;101031.53;;;9.31;93.76
9009;BME280;62813;51.424;6.762;2023-02-23T06:08:20;101037.59;;;9.30;93.66
9009;BME280;62813;51.424;6.762;2023-02-23T06:10:47;101029.78;;;9.32;93.53
9009;BME280;62813;51.424;6.762;2023-02-23T06:13:14;101038.41;;;9.32;93.62
9009;BME280;62813;51.424;6.762;2023-02-23T06:15:42;101042.97;;;9.24;93.54
9009;BME280;62813;51.424;6.762;2023-02-23T06:18:09;101039.47;;;9.25;93.57
9009;BME280;62813;51.424;6.762;2023-02-23T06:20:37;101040.38;;;9.24;93.67
9009;BME280;62813;51.424;6.762;2023-02-23T06:23:05;101045.44;;;9.27;93.50
9009;BME280;62813;51.424;6.762;2023-02-23T06:25:33;101049.13;;;9.20;94.27
9009;BME280;62813;51.424;6.762;2023-02-23T06:27:59;101046.66;;;9.17;94.14
9009;BME280;62813;51.424;6.762;2023-02-23T06:30:26;101053.59;;;9.15;94.05
9009;BME280;62813;51.424;6.762;2023-02-23T06:32:52;101059.50;;;9.20;93.52
9009;BME280;62813;51.424;6.762;2023-02-23T06:35:19;101062.19;;;9.17;93.99
9009;BME280;62813;51.424;6.762;2023-02-23T06:37:46;101063.78;;;9.21;93.84
9009;BME280;62813;51.424;6.762;2023-02-23T06:40:12;101067.25;;;9.20;93.18
9009;BME280;62813;51.424;6.762;2023-02-23T06:42:39;101075.06;;;9.18;93.60
9009;BME280;62813;51.424;6.762;2023-02-23T06:45:06;101067.25;;;9.20;93.19
9009;BME280;62813;51.424;6.762;2023-02-23T06:47:35;101067.34;;;9.17;93.02
9009;BME280;62813;51.424;6.762;2023-02-23T06:50:02;101078.63;;;9.16;92.99
9009;BME280;62813;51.424;6.762;2023-02-23T06:52:29;101076.06;;;9.14;93.17
9009;BME280;62813;51.424;6.762;2023-02-23T06:54:55;101079.50;;;9.15;93.47
9009;BME280;62813;51.424;6.762;2023-02-23T06:57:22;101074.31;;;9.15;93.34
9009;BME280;62813;51.424;6.762;2023-02-23T06:59:49;101087.34;;;9.12;93.49
9009;BME280;62813;51.424;6.762;2023-02-23T07:02:16;101090.13;;;9.06;93.78
9009;BME280;62813;51.424;6.762;2023-02-23T07:04:43;101090.25;;;9.00;93.91
9009;BME280;62813;51.424;6.762;2023-02-23T07:07:10;101093.75;;;8.99;93.83
9009;BME280;62813;51.424;6.762;2023-02-23T07:09:40;101098.84;;;9.02;92.78
9009;BME280;62813;51.424;6.762;2023-02-23T07:12:09;101092.06;;;8.97;92.97
9009;BME280;62813;51.424;6.762;2023-02-23T07:14:35;101099.94;;;8.93;93.24
9009;BME280;62813;51.424;6.762;2023-02-23T07:17:03;101106.88;;;8.92;93.12
9009;BME280;62813;51.424;6.762;2023-02-23T07:19:33;101106.97;;;8.89;92.88
9009;BME280;62813;51.424;6.762;2023-02-23T07:22:00;101115.66;;;8.87;92.77
9009;BME280;62813;51.424;6.762;2023-02-23T07:24:26;101110.94;;;8.70;93.25
9009;BME280;62813;51.424;6.762;2023-02-23T07:26:53;101114.47;;;8.67;93.32
9009;BME280;62813;51.424;6.762;2023-02-23T07:29:20;101115.41;;;8.65;93.32
9009;BME280;62813;51.424;6.762;2023-02-23T07:31:49;101115.41;;;8.65;92.72
9009;BME280;62813;51.424;6.762;2023-02-23T07:34:16;101114.75;;;8.57;93.08
9009;BME280;62813;51.424;6.762;2023-02-23T07:36:42;101120.81;;;8.56;92.50
9009;BME280;62813;51.424;6.762;2023-02-23T07:39:09;101119.19;;;8.52;92.89
9009;BME280;62813;51.424;6.762;2023-02-23T07:41:36;101124.38;;;8.52;92.95
9009;BME280;62813;51.424;6.762;2023-02-23T07:44:03;101124.38;;;8.52;93.44
9009;BME280;62813;51.424;6.762;2023-02-23T07:46:29;101127.69;;;8.57;93.33
9009;BME280;62813;51.424;6.762;2023-02-23T07:48:56;101125.00;;;8.61;93.13
9009;BME280;62813;51.424;6.762;2023-02-23T07:51:23;101129.22;;;8.64;93.37
9009;BME280;62813;51.424;6.762;2023-02-23T07:53:49;101132.72;;;8.63;93.58
9009;BME280;62813;51.424;6.762;2023-02-23T07:56:16;101137.84;;;8.64;93.27
9009;BME280;62813;51.424;6.762;2023-02-23T07:58:46;101143.84;;;8.65;93.05
9009;BME280;62813;51.424;6.762;2023-02-23T08:01:12;101144.72;;;8.65;92.45
9009;BME280;62813;51.424;6.762;2023-02-23T08:03:39;101142.97;;;8.66;92.33
9009;BME280;62813;51.424;6.762;2023-02-23T08:06:06;101143.75;;;8.69;92.30
9009;BME280;62813;51.424;6.762;2023-02-23T08:08:33;101144.75;;;8.64;92.00
9009;BME280;62813;51.424;6.762;2023-02-23T08:11:02;101139.75;;;8.58;92.43
9009;BME280;62813;51.424;6.762;2023-02-23T08:13:30;101142.38;;;8.56;92.50
9009;BME280;62813;51.424;6.762;2023-02-23T08:15:57;101149.19;;;8.59;93.22
9009;BME280;62813;51.424;6.762;2023-02-23T08:18:24;101147.47;;;8.59;92.94
9009;BME280;62813;51.424;6.762;2023-02-23T08:20:57;101150.03;;;8.61;92.72
9009;BME280;62813;51.424;6.762;2023-02-23T08:23:23;101154.38;;;8.59;92.70
9009;BME280;62813;51.424;6.762;2023-02-23T08:25:50;101163.00;;;8.59;92.73
9009;BME280;62813;51.424;6.762;2023-02-23T08:28:19;101160.38;;;8.61;93.26
9009;BME280;62813;51.424;6.762;2023-02-23T08:30:45;101166.31;;;8.64;93.20
9009;BME280;62813;51.424;6.762;2023-02-23T08:33:12;101164.56;;;8.65;92.63
9009;BME280;62813;51.424;6.762;2023-02-23T08:35:38;101166.25;;;8.66;92.41
9009;BME280;62813;51.424;6.762;2023-02-23T08:38:05;101165.41;;;8.65;92.81
9009;BME280;62813;51.424;6.762;2023-02-23T08:40:32;101175.81;;;8.64;92.91
9009;BME280;62813;51.424;6.762;2023-02-23T08:42:59;101172.41;;;8.62;92.77
9009;BME280;62813;51.424;6.762;2023-02-23T08:45:25;101166.31;;;8.64;92.86
9009;BME280;62813;51.424;6.762;2023-02-23T08:47:54;101171.28;;;8.72;92.89
9009;BME280;62813;51.424;6.762;2023-02-23T08:50:21;101172.81;;;8.79;92.80
9009;BME280;62813;51.424;6.762;2023-02-23T08:52:52;101177.81;;;8.85;92.66
9009;BME280;62813;51.424;6.762;2023-02-23T08:55:19;101174.28;;;8.89;92.83
9009;BME280;62813;51.424;6.762;2023-02-23T08:57:47;101183.72;;;8.90;92.42
9009;BME280;62813;51.424;6.762;2023-02-23T09:00:14;101178.41;;;8.96;91.60
9009;BME280;62813;51.424;6.762;2023-02-23T09:02:43;101182.78;;;8.93;91.69
9009;BME280;62813;51.424;6.762;2023-02-23T09:05:13;101180.19;;;8.93;92.36
9009;BME280;62813;51.424;6.762;2023-02-23T09:07:40;101184.38;;;8.99;92.01
9009;BME280;62813;51.424;6.762;2023-02-23T09:10:17;101182.63;;;8.99;91.95
9009;BME280;62813;51.424;6.762;2023-02-23T09:12:45;101182.56;;;9.02;92.55
9009;BME280;62813;51.424;6.762;2023-02-23T09:15:11;101192.06;;;9.02;92.70
9009;BME280;62813;51.424;6.762;2023-02-23T09:17:38;101193.63;;;9.09;92.44
9009;BME280;62813;51.424;6.762;2023-02-23T09:20:05;101199.72;;;9.06;91.42
9009;BME280;62813;51.424;6.762;2023-02-23T09:22:34;101193.84;;;9.00;91.17
9009;BME280;62813;51.424;6.762;2023-02-23T09:25:02;101193.88;;;8.98;91.56
9009;BME280;62813;51.424;6.762;2023-02-23T09:27:30;101200.81;;;8.97;91.50
9009;BME280;62813;51.424;6.762;2023-02-23T09:29:56;101192.81;;;9.07;91.95
9009;BME280;62813;51.424;6.762;2023-02-23T09:32:23;101199.00;;;9.00;91.36
9009;BME280;62813;51.424;6.762;2023-02-23T09:34:49;101195.53;;;9.01;90.58
9009;BME280;62813;51.424;6.762;2023-02-23T09:37:17;101198.13;;;9.01;90.79
9009;BME280;62813;51.424;6.762;2023-02-23T09:39:44;101195.47;;;9.04;90.46
9009;BME280;62813;51.424;6.762;2023-02-23T09:42:38;101199.41;;;9.18;90.53
9009;BME280;62813;51.424;6.762;2023-02-23T09:45:25;101212.41;;;9.17;89.38
9009;BME280;62813;51.424;6.762;2023-02-23T09:48:22;101207.97;;;9.20;89.46
9009;BME280;62813;51.424;6.762;2023-02-23T09:50:53;101217.09;;;9.34;89.98
9009;BME280;62813;51.424;6.762;2023-02-23T09:53:31;101224.91;;;9.32;89.49
9009;BME280;62813;51.424;6.762;2023-02-23T09:56:03;101225.53;;;9.40;89.46
9009;BME280;62813;51.424;6.762;2023-02-23T09:58:33;101227.34;;;9.38;89.13
9009;BME280;62813;51.424;6.762;2023-02-23T10:04:11;101235.81;;;9.43;88.70
9009;BME280;62813;51.424;6.762;2023-02-23T10:06:42;101235.13;;;9.37;88.09
9009;BME280;62813;51.424;6.762;2023-02-23T10:09:21;101232.00;;;9.26;87.62
9009;BME280;62813;51.424;6.762;2023-02-23T10:20:44;101250.59;;;9.09;88.02
9009;BME280;62813;51.424;6.762;2023-02-23T10:23:17;101253.19;;;9.09;88.12
9009;BME280;62813;51.424;6.762;2023-02-23T10:25:48;101252.44;;;9.04;88.16
9009;BME280;62813;51.424;6.762;2023-02-23T10:28:18;101252.28;;;9.10;88.37
9009;BME280;62813;51.424;6.762;2023-02-23T10:30:48;101252.13;;;9.16;88.69
9009;BME280;62813;51.424;6.762;2023-02-23T10:33:25;101252.28;;;9.10;89.15
9009;BME280;62813;51.424;6.762;2023-02-23T10:36:01;101265.09;;;9.14;88.22
9009;BME280;62813;51.424;6.762;2023-02-23T10:38:39;101257.47;;;9.10;88.30
9009;BME280;62813;51.424;6.762;2023-02-23T10:41:06;101265.94;;;9.16;89.05
9009;BME280;62813;51.424;6.762;2023-02-23T10:43:32;101250.41;;;9.16;89.39
9009;BME280;62813;51.424;6.762;2023-02-23T10:45:59;101253.75;;;9.20;89.24
9009;BME280;62813;51.424;6.762;2023-02-23T10:48:36;101254.63;;;9.19;88.60
9009;BME280;62813;51.424;6.762;2023-02-23T10:51:21;101258.50;;;9.03;87.77
9009;BME280;62813;51.424;6.762;2023-02-23T10:53:50;101260.59;;;8.88;88.27
9009;BME280;62813;51.424;6.762;2023-02-23T10:56:19;101259.06;;;8.81;87.73
9009;BME280;62813;51.424;6.762;2023-02-23T10:58:50;101266.97;;;8.75;88.23
9009;BME280;62813;51.424;6.762;2023-02-23T11:01:38;101265.09;;;8.80;88.45
9009;BME280;62813;51.424;6.762;2023-02-23T11:04:30;101264.38;;;8.75;87.54
9009;BME280;62813;51.424;6.762;2023-02-23T11:07:08;101261.94;;;8.69;87.96
9009;BME280;62813;51.424;6.762;2023-02-23T11:09:35;101267.81;;;8.76;88.08
9009;BME280;62813;51.424;6.762;2023-02-23T11:14:56;101270.75;;;8.96;88.40
9009;BME280;62813;51.424;6.762;2023-02-23T11:17:33;101278.38;;;9.01;88.49
9009;BME280;62813;51.424;6.762;2023-02-23T11:20:05;101273.81;;;9.12;88.66
9009;BME280;62813;51.424;6.762;2023-02-23T11:22:34;101274.56;;;9.17;87.63
9009;BME280;62813;51.424;6.762;2023-02-23T11:25:02;101278.00;;;9.17;87.48
9009;BME280;62813;51.424;6.762;2023-02-23T11:27:38;101272.88;;;9.14;86.29
9009;BME280;62813;51.424;6.762;2023-02-23T11:30:05;101264.34;;;9.11;86.20
9009;BME280;62813;51.424;6.762;2023-02-23T11:32:33;101263.47;;;9.12;85.74
9009;BME280;62813;51.424;6.762;2023-02-23T11:37:37;101254.69;;;9.17;85.22
9009;BME280;62813;51.424;6.762;2023-02-23T11:40:29;101265.09;;;9.14;86.39
9009;BME280;62813;51.424;6.762;2023-02-23T11:43:12;101263.34;;;9.16;85.67
9009;BME280;62813;51.424;6.762;2023-02-23T11:45:51;101268.78;;;9.06;86.19
9009;BME280;62813;51.424;6.762;2023-02-23T11:48:33;101267.91;;;9.07;86.05
9009;BME280;62813;51.424;6.762;2023-02-23T11:51:00;101266.28;;;9.03;86.19
9009;BME280;62813;51.424;6.762;2023-02-23T11:53:31;101263.75;;;9.00;86.23
9009;BME280;62813;51.424;6.762;2023-02-23T11:56:01;101263.69;;;9.03;85.97
9009;BME280;62813;51.424;6.762;2023-02-23T11:58:37;101262.91;;;8.99;86.06
9009;BME280;62813;51.424;6.762;2023-02-23T12:01:07;101262.00;;;9.00;86.86
9009;BME280;62813;51.424;6.762;2023-02-23T12:03:44;101260.41;;;8.96;86.27
9009;BME280;62813;51.424;6.762;2023-02-23T12:06:35;101255.97;;;9.00;87.13
9009;BME280;62813;51.424;6.762;2023-02-23T12:09:19;101254.22;;;9.02;87.13
9009;BME280;62813;51.424;6.762;2023-02-23T12:12:02;101252.31;;;9.08;86.90
9009;BME280;62813;51.424;6.762;2023-02-23T12:14:50;101242.78;;;9.10;86.73
9009;BME280;62813;51.424;6.762;2023-02-23T12:17:25;101248.03;;;9.07;85.71
9009;BME280;62813;51.424;6.762;2023-02-23T12:19:59;101245.72;;;8.96;86.71
9009;BME280;62813;51.424;6.762;2023-02-23T12:22:32;101246.59;;;8.95;86.67
9009;BME280;62813;51.424;6.762;2023-02-23T12:25:03;101242.28;;;8.94;86.74
9009;BME280;62813;51.424;6.762;2023-02-23T12:27:43;101249.91;;;9.01;86.31
9009;BME280;62813;51.424;6.762;2023-02-23T12:30:39;101254.13;;;9.05;85.56
9009;BME280;62813;51.424;6.762;2023-02-23T12:33:12;101252.41;;;9.05;85.69
9009;BME280;62813;51.424;6.762;2023-02-23T12:35:55;101261.16;;;9.00;85.46
9009;BME280;62813;51.424;6.762;2023-02-23T12:39:04;101252.44;;;9.04;85.78
9009;BME280;62813;51.424;6.762;2023-02-23T12:41:47;101248.00;;;9.09;86.33
9009;BME280;62813;51.424;6.762;2023-02-23T12:47:15;101241.84;;;9.13;86.05
9009;BME280;62813;51.424;6.762;2023-02-23T12:49:57;101248.13;;;9.03;84.00
9009;BME280;62813;51.424;6.762;2023-02-23T12:52:33;101249.03;;;9.02;84.21
9009;BME280;62813;51.424;6.762;2023-02-23T12:55:04;101252.28;;;9.10;84.48
9009;BME280;62813;51.424;6.762;2023-02-23T12:57:51;101252.38;;;9.07;84.11
9009;BME280;62813;51.424;6.762;2023-02-23T13:15:07;101255.59;;;9.15;84.71
9009;BME280;62813;51.424;6.762;2023-02-23T13:20:24;101260.78;;;9.15;84.55
9009;BME280;62813;51.424;6.762;2023-02-23T13:26:20;101252.16;;;9.14;84.08
9009;BME280;62813;51.424;6.762;2023-02-23T13:28:54;101252.13;;;9.16;84.32
9009;BME280;62813;51.424;6.762;2023-02-23T13:31:27;101258.31;;;9.10;83.80
9009;BME280;62813;51.424;6.762;2023-02-23T13:33:56;101264.25;;;9.14;83.70
9009;BME280;62813;51.424;6.762;2023-02-23T13:36:26;101268.69;;;9.10;82.43
9009;BME280;62813;51.424;6.762;2023-02-23T13:39:14;101259.28;;;9.06;81.61
9009;BME280;62813;51.424;6.762;2023-02-23T13:44:54;101253.28;;;9.04;81.56
9009;BME280;62813;51.424;6.762;2023-02-23T13:50:46;101255.06;;;9.02;82.12
9009;BME280;62813;51.424;6.762;2023-02-23T13:53:45;101255.00;;;9.05;82.28
9009;BME280;62813;51.424;6.762;2023-02-23T13:56:17;101256.59;;;9.11;82.34
9009;BME280;62813;51.424;6.762;2023-02-23T13:58:49;101258.44;;;9.04;82.24
9009;BME280;62813;51.424;6.762;2023-02-23T14:01:21;101248.09;;;9.04;82.89
9009;BME280;62813;51.424;6.762;2023-02-23T14:03:53;101259.31;;;9.05;83.44
9009;BME280;62813;51.424;6.762;2023-02-23T14:06:23;101265.44;;;9.01;84.01
9009;BME280;62813;51.424;6.762;2023-02-23T14:08:54;101256.81;;;9.02;83.85
9009;BME280;62813;51.424;6.762;2023-02-23T14:11:27;101268.84;;;9.03;83.55
9009;BME280;62813;51.424;6.762;2023-02-23T14:14:00;101268.06;;;8.99;83.57
9009;BME280;62813;51.424;6.762;2023-02-23T14:16:28;101266.31;;;9.00;82.84
9009;BME280;62813;51.424;6.762;2023-02-23T14:21:59;101258.50;;;9.03;83.45
9009;BME280;62813;51.424;6.762;2023-02-23T14:24:30;101260.19;;;9.05;83.36
9009;BME280;62813;51.424;6.762;2023-02-23T14:29:44;101260.09;;;9.08;83.67
9009;BME280;62813;51.424;6.762;2023-02-23T14:32:30;101265.34;;;9.05;83.40
9009;BME280;62813;51.424;6.762;2023-02-23T14:35:04;101268.91;;;9.00;83.61
9009;BME280;62813;51.424;6.762;2023-02-23T14:37:55;101263.78;;;8.98;83.18
9009;BME280;62813;51.424;6.762;2023-02-23T14:40:30;101269.13;;;8.92;83.52
9009;BME280;62813;51.424;6.762;2023-02-23T14:43:01;101263.94;;;8.92;83.42
9009;BME280;62813;51.424;6.762;2023-02-23T14:45:30;101269.06;;;8.93;83.60
9009;BME280;62813;51.424;6.762;2023-02-23T14:48:03;101266.38;;;8.98;84.06
9009;BME280;62813;51.424;6.762;2023-02-23T14:50:33;101267.28;;;8.97;84.60
9009;BME280;62813;51.424;6.762;2023-02-23T14:53:01;101267.06;;;9.05;84.28
9009;BME280;62813;51.424;6.762;2023-02-23T14:55:31;101267.06;;;9.06;83.82
9009;BME280;62813;51.424;6.762;2023-02-23T14:58:17;101255.53;;;9.18;82.91
9009;BME280;62813;51.424;6.762;2023-02-23T15:00:46;101257.13;;;9.22;83.31
9009;BME280;62813;51.424;6.762;2023-02-23T15:03:14;101257.84;;;9.27;83.72
9009;BME280;62813;51.424;6.762;2023-02-23T15:05:45;101263.00;;;9.29;83.43
9009;BME280;62813;51.424;6.762;2023-02-23T15:08:15;101273.50;;;9.22;84.00
9009;BME280;62813;51.424;6.762;2023-02-23T15:10:44;101269.31;;;9.18;83.13